Allen's Hourly Summary for Monday, May 14, 2018
Hour Temp
(f)
RH
(%)
Solar Rad.
(MJ/m2)
Rainfall
(in)
Wind
(mph)
5/14/2018 12:00 AM 77 64 0 0 2.82
5/14/2018 1:00 AM 75 68 0 0 2.35
5/14/2018 2:00 AM 75 70 0 0 1.94
5/14/2018 3:00 AM 74 72 0 0 2.26
5/14/2018 4:00 AM 72 76 0 0 2.42
5/14/2018 5:00 AM 71 80 0 0 1.74
5/14/2018 6:00 AM 71 83 0 0 2.16
5/14/2018 7:00 AM 70 85 0.02 0 1.51
5/14/2018 8:00 AM 72 79 0.42 0 1.64
5/14/2018 9:00 AM 74 74 0.86 0 2.41
5/14/2018 10:00 AM 76 69 1.32 0 3.01
5/14/2018 11:00 AM 78 61 2 0 3.25
5/14/2018 12:00 PM 81 56 2.73 0 3.71
5/14/2018 1:00 PM 82 53 2.44 0 3.39
5/14/2018 2:00 PM 84 51 2.76 0 3.78
5/14/2018 3:00 PM 85 48 2.34 0 3.71
5/14/2018 4:00 PM 86 44 2.5 0 3.62
5/14/2018 5:00 PM 86 44 1.93 0 4.32
5/14/2018 6:00 PM 84 48 1.15 0 5.49
5/14/2018 7:00 PM 83 51 0.69 0 5.83
5/14/2018 8:00 PM 81 51 0.1 0 5.23
5/14/2018 9:00 PM 79 59 0.01 0 3.45
5/14/2018 10:00 PM 78 65 0 0 3.02
5/14/2018 11:00 PM 77 66 0 0 2.72
Data Summary 77 63 21.27 0.00 3.16